sensor_id;sensor_type;location;lat;lon;timestamp;pressure;altitude;pressure_sealevel;temperature;humidity
4398;BME280;2213;49.720;7.296;2022-10-17T00:00:10;98603.19;;;13.86;100.00
4398;BME280;2213;49.720;7.296;2022-10-17T00:02:39;98600.97;;;13.83;100.00
4398;BME280;2213;49.720;7.296;2022-10-17T00:05:08;98605.78;;;13.79;100.00
4398;BME280;2213;49.720;7.296;2022-10-17T00:07:40;98606.59;;;13.80;100.00
4398;BME280;2213;49.720;7.296;2022-10-17T00:10:09;98611.25;;;13.78;100.00
4398;BME280;2213;49.720;7.296;2022-10-17T00:12:37;98619.16;;;13.78;100.00
4398;BME280;2213;49.720;7.296;2022-10-17T00:15:08;98612.63;;;13.74;100.00
4398;BME280;2213;49.720;7.296;2022-10-17T00:17:39;98606.16;;;13.70;100.00
4398;BME280;2213;49.720;7.296;2022-10-17T00:20:09;98610.59;;;13.69;100.00
4398;BME280;2213;49.720;7.296;2022-10-17T00:22:42;98610.16;;;13.66;100.00
4398;BME280;2213;49.720;7.296;2022-10-17T00:25:12;98615.41;;;13.66;100.00
4398;BME280;2213;49.720;7.296;2022-10-17T00:27:41;98609.94;;;13.60;100.00
4398;BME280;2213;49.720;7.296;2022-10-17T00:30:13;98605.69;;;13.59;100.00
4398;BME280;2213;49.720;7.296;2022-10-17T00:32:43;98602.63;;;13.56;100.00
4398;BME280;2213;49.720;7.296;2022-10-17T00:35:12;98609.69;;;13.55;100.00
4398;BME280;2213;49.720;7.296;2022-10-17T00:37:42;98604.81;;;13.52;100.00
4398;BME280;2213;49.720;7.296;2022-10-17T00:40:12;98611.06;;;13.51;100.00
4398;BME280;2213;49.720;7.296;2022-10-17T00:42:41;98611.72;;;13.53;100.00
4398;BME280;2213;49.720;7.296;2022-10-17T00:45:21;98608.44;;;13.51;100.00
4398;BME280;2213;49.720;7.296;2022-10-17T00:47:55;98609.25;;;13.52;100.00
4398;BME280;2213;49.720;7.296;2022-10-17T00:50:27;98613.66;;;13.45;100.00
4398;BME280;2213;49.720;7.296;2022-10-17T00:53:01;98607.16;;;13.41;100.00
4398;BME280;2213;49.720;7.296;2022-10-17T00:55:37;98604.09;;;13.37;100.00
4398;BME280;2213;49.720;7.296;2022-10-17T00:58:10;98609.16;;;13.39;100.00
4398;BME280;2213;49.720;7.296;2022-10-17T01:00:40;98605.47;;;13.33;100.00
4398;BME280;2213;49.720;7.296;2022-10-17T01:03:09;98604.84;;;13.31;100.00
4398;BME280;2213;49.720;7.296;2022-10-17T01:05:39;98604.25;;;13.29;100.00
4398;BME280;2213;49.720;7.296;2022-10-17T01:08:11;98602.22;;;13.31;100.00
4398;BME280;2213;49.720;7.296;2022-10-17T01:10:58;98602.22;;;13.31;100.00
4398;BME280;2213;49.720;7.296;2022-10-17T01:13:38;98598.34;;;13.27;100.00
4398;BME280;2213;49.720;7.296;2022-10-17T01:16:20;98607.00;;;13.21;100.00
4398;BME280;2213;49.720;7.296;2022-10-17T01:19:02;98602.94;;;13.19;100.00
4398;BME280;2213;49.720;7.296;2022-10-17T01:21:47;98611.44;;;13.21;100.00
4398;BME280;2213;49.720;7.296;2022-10-17T01:24:53;98612.25;;;13.21;100.00
4398;BME280;2213;49.720;7.296;2022-10-17T01:27:58;98614.84;;;13.15;100.00
4398;BME280;2213;49.720;7.296;2022-10-17T01:31:07;98616.94;;;13.04;100.00
4398;BME280;2213;49.720;7.296;2022-10-17T01:33:59;98619.34;;;13.06;100.00
4398;BME280;2213;49.720;7.296;2022-10-17T01:36:38;98621.00;;;13.07;100.00
4398;BME280;2213;49.720;7.296;2022-10-17T01:39:18;98620.16;;;13.06;100.00
4398;BME280;2213;49.720;7.296;2022-10-17T01:41:56;98624.59;;;13.06;100.00
4398;BME280;2213;49.720;7.296;2022-10-17T01:44:34;98627.06;;;13.07;100.00
4398;BME280;2213;49.720;7.296;2022-10-17T01:47:10;98615.31;;;13.03;100.00
4398;BME280;2213;49.720;7.296;2022-10-17T01:49:43;98612.84;;;13.02;100.00
4398;BME280;2213;49.720;7.296;2022-10-17T01:52:18;98615.03;;;12.98;100.00
4398;BME280;2213;49.720;7.296;2022-10-17T01:54:52;98608.75;;;12.93;100.00
4398;BME280;2213;49.720;7.296;2022-10-17T01:57:29;98606.66;;;12.88;100.00
4398;BME280;2213;49.720;7.296;2022-10-17T02:00:03;98603.50;;;12.93;100.00
4398;BME280;2213;49.720;7.296;2022-10-17T02:02:36;98606.50;;;12.90;100.00
4398;BME280;2213;49.720;7.296;2022-10-17T02:05:07;98608.47;;;12.88;100.00
4398;BME280;2213;49.720;7.296;2022-10-17T02:07:37;98599.00;;;12.87;100.00
4398;BME280;2213;49.720;7.296;2022-10-17T02:10:30;98596.16;;;12.88;100.00
4398;BME280;2213;49.720;7.296;2022-10-17T02:13:08;98600.59;;;12.88;100.00
4398;BME280;2213;49.720;7.296;2022-10-17T02:16:01;98598.34;;;12.85;100.00
4398;BME280;2213;49.720;7.296;2022-10-17T02:19:18;98586.88;;;12.86;100.00
4398;BME280;2213;49.720;7.296;2022-10-17T02:21:55;98579.75;;;12.80;100.00
4398;BME280;2213;49.720;7.296;2022-10-17T02:24:36;98591.63;;;12.76;100.00
4398;BME280;2213;49.720;7.296;2022-10-17T02:27:15;98594.25;;;12.76;100.00
4398;BME280;2213;49.720;7.296;2022-10-17T02:29:48;98598.50;;;12.77;100.00
4398;BME280;2213;49.720;7.296;2022-10-17T02:32:30;98595.66;;;12.78;100.00
4398;BME280;2213;49.720;7.296;2022-10-17T02:35:04;98595.66;;;12.78;100.00
4398;BME280;2213;49.720;7.296;2022-10-17T02:37:37;98599.13;;;12.79;100.00
4398;BME280;2213;49.720;7.296;2022-10-17T02:40:12;98601.72;;;12.79;100.00
4398;BME280;2213;49.720;7.296;2022-10-17T02:42:44;98601.50;;;12.74;100.00
4398;BME280;2213;49.720;7.296;2022-10-17T02:45:14;98592.00;;;12.73;100.00
4398;BME280;2213;49.720;7.296;2022-10-17T02:47:53;98592.00;;;12.73;100.00
4398;BME280;2213;49.720;7.296;2022-10-17T02:50:39;98589.53;;;12.71;100.00
4398;BME280;2213;49.720;7.296;2022-10-17T02:53:16;98586.84;;;12.65;100.00
4398;BME280;2213;49.720;7.296;2022-10-17T02:55:56;98591.13;;;12.66;100.00
4398;BME280;2213;49.720;7.296;2022-10-17T02:58:32;98590.28;;;12.65;100.00
4398;BME280;2213;49.720;7.296;2022-10-17T03:01:04;98591.13;;;12.66;100.00
4398;BME280;2213;49.720;7.296;2022-10-17T03:03:34;98599.16;;;12.64;100.00
4398;BME280;2213;49.720;7.296;2022-10-17T03:06:04;98594.50;;;12.59;100.00
4398;BME280;2213;49.720;7.296;2022-10-17T03:08:33;98598.28;;;12.57;100.00
4398;BME280;2213;49.720;7.296;2022-10-17T03:11:02;98601.53;;;12.59;100.00
4398;BME280;2213;49.720;7.296;2022-10-17T03:13:31;98605.97;;;12.58;100.00
4398;BME280;2213;49.720;7.296;2022-10-17T03:16:06;98602.72;;;12.56;100.00
4398;BME280;2213;49.720;7.296;2022-10-17T03:18:36;98601.09;;;12.55;100.00
4398;BME280;2213;49.720;7.296;2022-10-17T03:21:06;98607.94;;;12.56;100.00
4398;BME280;2213;49.720;7.296;2022-10-17T03:23:35;98598.66;;;12.54;100.00
4398;BME280;2213;49.720;7.296;2022-10-17T03:26:05;98603.09;;;12.53;100.00
4398;BME280;2213;49.720;7.296;2022-10-17T03:28:34;98607.72;;;12.51;100.00
4398;BME280;2213;49.720;7.296;2022-10-17T03:31:08;98610.34;;;12.51;100.00
4398;BME280;2213;49.720;7.296;2022-10-17T03:33:37;98608.91;;;12.49;100.00
4398;BME280;2213;49.720;7.296;2022-10-17T03:36:09;98608.69;;;12.50;100.00
4398;BME280;2213;49.720;7.296;2022-10-17T03:38:38;98612.34;;;12.49;100.00
4398;BME280;2213;49.720;7.296;2022-10-17T03:41:08;98614.31;;;12.47;100.00
4398;BME280;2213;49.720;7.296;2022-10-17T03:43:36;98606.28;;;12.49;100.00
4398;BME280;2213;49.720;7.296;2022-10-17T03:46:07;98607.09;;;12.49;100.00
4398;BME280;2213;49.720;7.296;2022-10-17T03:48:37;98610.50;;;12.50;100.00
4398;BME280;2213;49.720;7.296;2022-10-17T03:51:09;98622.56;;;12.44;100.00
4398;BME280;2213;49.720;7.296;2022-10-17T03:53:38;98626.38;;;12.42;100.00
4398;BME280;2213;49.720;7.296;2022-10-17T03:56:13;98623.69;;;12.35;100.00
4398;BME280;2213;49.720;7.296;2022-10-17T03:58:43;98629.53;;;12.37;100.00
4398;BME280;2213;49.720;7.296;2022-10-17T04:01:16;98626.91;;;12.37;100.00
4398;BME280;2213;49.720;7.296;2022-10-17T04:03:48;98631.19;;;12.38;100.00
4398;BME280;2213;49.720;7.296;2022-10-17T04:06:20;98640.03;;;12.37;100.00
4398;BME280;2213;49.720;7.296;2022-10-17T04:08:49;98633.97;;;12.37;100.00
4398;BME280;2213;49.720;7.296;2022-10-17T04:11:20;98633.53;;;12.33;100.00
4398;BME280;2213;49.720;7.296;2022-10-17T04:13:53;98634.50;;;12.32;100.00
4398;BME280;2213;49.720;7.296;2022-10-17T04:16:23;98641.16;;;12.28;100.00
4398;BME280;2213;49.720;7.296;2022-10-17T04:18:53;98638.69;;;12.27;100.00
4398;BME280;2213;49.720;7.296;2022-10-17T04:21:26;98638.69;;;12.27;100.00
4398;BME280;2213;49.720;7.296;2022-10-17T04:23:56;98640.50;;;12.26;100.00
4398;BME280;2213;49.720;7.296;2022-10-17T04:26:26;98630.00;;;12.26;100.00
4398;BME280;2213;49.720;7.296;2022-10-17T04:28:55;98630.81;;;12.27;100.00
4398;BME280;2213;49.720;7.296;2022-10-17T04:31:24;98627.75;;;12.23;100.00
4398;BME280;2213;49.720;7.296;2022-10-17T04:33:53;98627.84;;;12.15;100.00
4398;BME280;2213;49.720;7.296;2022-10-17T04:36:23;98632.31;;;12.15;100.00
4398;BME280;2213;49.720;7.296;2022-10-17T04:38:52;98635.25;;;12.11;100.00
4398;BME280;2213;49.720;7.296;2022-10-17T04:41:21;98644.97;;;12.11;100.00
4398;BME280;2213;49.720;7.296;2022-10-17T04:43:50;98639.72;;;12.11;100.00
4398;BME280;2213;49.720;7.296;2022-10-17T04:46:19;98637.09;;;12.11;100.00
4398;BME280;2213;49.720;7.296;2022-10-17T04:48:48;98631.19;;;12.09;100.00
4398;BME280;2213;49.720;7.296;2022-10-17T04:51:18;98630.94;;;12.04;100.00
4398;BME280;2213;49.720;7.296;2022-10-17T04:53:53;98635.38;;;12.03;100.00
4398;BME280;2213;49.720;7.296;2022-10-17T04:56:24;98634.56;;;12.03;100.00
4398;BME280;2213;49.720;7.296;2022-10-17T04:58:52;98630.31;;;12.02;100.00
4398;BME280;2213;49.720;7.296;2022-10-17T05:01:22;98624.59;;;11.98;100.00
4398;BME280;2213;49.720;7.296;2022-10-17T05:03:51;98631.19;;;11.94;100.00
4398;BME280;2213;49.720;7.296;2022-10-17T05:06:24;98638.28;;;11.94;100.00
4398;BME280;2213;49.720;7.296;2022-10-17T05:08:58;98640.25;;;11.92;100.00
4398;BME280;2213;49.720;7.296;2022-10-17T05:11:29;98637.63;;;11.92;100.00
4398;BME280;2213;49.720;7.296;2022-10-17T05:14:00;98635.38;;;11.89;100.00
4398;BME280;2213;49.720;7.296;2022-10-17T05:16:32;98630.94;;;11.89;100.00
4398;BME280;2213;49.720;7.296;2022-10-17T05:19:02;98628.31;;;11.89;100.00
4398;BME280;2213;49.720;7.296;2022-10-17T05:21:32;98634.19;;;11.91;100.00
4398;BME280;2213;49.720;7.296;2022-10-17T05:24:07;98636.00;;;11.91;100.00
4398;BME280;2213;49.720;7.296;2022-10-17T05:26:37;98629.31;;;11.88;100.00
4398;BME280;2213;49.720;7.296;2022-10-17T05:29:07;98623.25;;;11.88;100.00
4398;BME280;2213;49.720;7.296;2022-10-17T05:31:37;98627.69;;;11.87;100.00
4398;BME280;2213;49.720;7.296;2022-10-17T05:34:06;98633.28;;;11.84;100.00
4398;BME280;2213;49.720;7.296;2022-10-17T05:36:39;98636.63;;;11.78;100.00
4398;BME280;2213;49.720;7.296;2022-10-17T05:39:13;98636.00;;;11.76;100.00
4398;BME280;2213;49.720;7.296;2022-10-17T05:41:46;98642.41;;;11.74;100.00
4398;BME280;2213;49.720;7.296;2022-10-17T05:44:15;98644.84;;;11.75;100.00
4398;BME280;2213;49.720;7.296;2022-10-17T05:46:44;98640.13;;;11.71;100.00
4398;BME280;2213;49.720;7.296;2022-10-17T05:49:16;98637.84;;;11.68;100.00
4398;BME280;2213;49.720;7.296;2022-10-17T05:52:06;98636.56;;;11.63;100.00
4398;BME280;2213;49.720;7.296;2022-10-17T05:54:37;98651.47;;;11.63;100.00
4398;BME280;2213;49.720;7.296;2022-10-17T05:57:06;98649.69;;;11.63;100.00
4398;BME280;2213;49.720;7.296;2022-10-17T05:59:36;98648.25;;;11.61;100.00
4398;BME280;2213;49.720;7.296;2022-10-17T06:02:05;98649.06;;;11.61;100.00
4398;BME280;2213;49.720;7.296;2022-10-17T06:04:34;98651.03;;;11.59;100.00
4398;BME280;2213;49.720;7.296;2022-10-17T06:07:04;98647.63;;;11.59;100.00
4398;BME280;2213;49.720;7.296;2022-10-17T06:09:38;98644.78;;;11.60;100.00
4398;BME280;2213;49.720;7.296;2022-10-17T06:12:11;98649.06;;;11.61;100.00
4398;BME280;2213;49.720;7.296;2022-10-17T06:14:40;98650.41;;;11.57;100.00
4398;BME280;2213;49.720;7.296;2022-10-17T06:17:09;98665.94;;;11.59;100.00
4398;BME280;2213;49.720;7.296;2022-10-17T06:19:42;98659.25;;;11.56;100.00
4398;BME280;2213;49.720;7.296;2022-10-17T06:22:12;98654.66;;;11.58;100.00
4398;BME280;2213;49.720;7.296;2022-10-17T06:24:43;98659.88;;;11.58;100.00
4398;BME280;2213;49.720;7.296;2022-10-17T06:27:17;98667.09;;;11.56;100.00
4398;BME280;2213;49.720;7.296;2022-10-17T06:29:48;98660.25;;;11.55;100.00
4398;BME280;2213;49.720;7.296;2022-10-17T06:32:18;98661.84;;;11.56;100.00
4398;BME280;2213;49.720;7.296;2022-10-17T06:34:47;98666.13;;;11.57;100.00
4398;BME280;2213;49.720;7.296;2022-10-17T06:37:18;98670.38;;;11.58;100.00
4398;BME280;2213;49.720;7.296;2022-10-17T06:39:50;98682.81;;;11.56;100.00
4398;BME280;2213;49.720;7.296;2022-10-17T06:42:20;98689.84;;;11.56;100.00
4398;BME280;2213;49.720;7.296;2022-10-17T06:44:49;98697.53;;;11.57;100.00
4398;BME280;2213;49.720;7.296;2022-10-17T06:47:19;98702.44;;;11.60;100.00
4398;BME280;2213;49.720;7.296;2022-10-17T06:49:48;98710.59;;;11.66;100.00
4398;BME280;2213;49.720;7.296;2022-10-17T06:52:17;98709.56;;;11.67;100.00
4398;BME280;2213;49.720;7.296;2022-10-17T06:54:48;98715.28;;;11.70;100.00
4398;BME280;2213;49.720;7.296;2022-10-17T06:57:20;98725.41;;;11.73;100.00
4398;BME280;2213;49.720;7.296;2022-10-17T06:59:51;98731.13;;;11.77;100.00
4398;BME280;2213;49.720;7.296;2022-10-17T07:02:22;98717.69;;;11.80;100.00
4398;BME280;2213;49.720;7.296;2022-10-17T07:04:51;98718.16;;;11.83;100.00
4398;BME280;2213;49.720;7.296;2022-10-17T07:07:20;98727.47;;;11.86;100.00
4398;BME280;2213;49.720;7.296;2022-10-17T07:09:52;98729.72;;;11.89;100.00
4398;BME280;2213;49.720;7.296;2022-10-17T07:12:23;98738.19;;;11.91;100.00
4398;BME280;2213;49.720;7.296;2022-10-17T07:15:05;98744.47;;;11.90;100.00
4398;BME280;2213;49.720;7.296;2022-10-17T07:17:34;98742.09;;;11.95;100.00
4398;BME280;2213;49.720;7.296;2022-10-17T07:20:03;98746.00;;;11.99;100.00
4398;BME280;2213;49.720;7.296;2022-10-17T07:22:33;98741.38;;;12.01;100.00
4398;BME280;2213;49.720;7.296;2022-10-17T07:25:05;98752.16;;;12.06;100.00
4398;BME280;2213;49.720;7.296;2022-10-17T07:27:35;98751.78;;;12.09;100.00
4398;BME280;2213;49.720;7.296;2022-10-17T07:30:06;98755.06;;;12.11;100.00
4398;BME280;2213;49.720;7.296;2022-10-17T07:32:36;98750.09;;;12.16;100.00
4398;BME280;2213;49.720;7.296;2022-10-17T07:35:06;98754.59;;;12.22;100.00
4398;BME280;2213;49.720;7.296;2022-10-17T07:37:36;98757.69;;;12.26;100.00
4398;BME280;2213;49.720;7.296;2022-10-17T07:40:09;98749.66;;;12.27;100.00
4398;BME280;2213;49.720;7.296;2022-10-17T07:42:39;98760.75;;;12.29;100.00
4398;BME280;2213;49.720;7.296;2022-10-17T07:45:09;98761.03;;;12.34;100.00
4398;BME280;2213;49.720;7.296;2022-10-17T07:47:38;98774.41;;;12.39;100.00
4398;BME280;2213;49.720;7.296;2022-10-17T07:50:08;98763.59;;;12.42;100.00
4398;BME280;2213;49.720;7.296;2022-10-17T07:52:37;98760.78;;;12.44;100.00
4398;BME280;2213;49.720;7.296;2022-10-17T07:55:10;98760.25;;;12.48;100.00
4398;BME280;2213;49.720;7.296;2022-10-17T07:57:38;98761.69;;;12.51;100.00
4398;BME280;2213;49.720;7.296;2022-10-17T08:00:09;98766.56;;;12.54;100.00
4398;BME280;2213;49.720;7.296;2022-10-17T08:02:39;98773.25;;;12.56;100.00
4398;BME280;2213;49.720;7.296;2022-10-17T08:05:08;98770.91;;;12.61;100.00
4398;BME280;2213;49.720;7.296;2022-10-17T08:07:38;98761.84;;;12.64;100.00
4398;BME280;2213;49.720;7.296;2022-10-17T08:10:11;98767.53;;;12.68;100.00
4398;BME280;2213;49.720;7.296;2022-10-17T08:12:41;98761.91;;;12.71;100.00
4398;BME280;2213;49.720;7.296;2022-10-17T08:15:12;98767.44;;;12.76;100.00
4398;BME280;2213;49.720;7.296;2022-10-17T08:17:41;98775.78;;;12.79;100.00
4398;BME280;2213;49.720;7.296;2022-10-17T08:20:10;98777.03;;;12.83;100.00
4398;BME280;2213;49.720;7.296;2022-10-17T08:22:39;98780.72;;;12.89;100.00
4398;BME280;2213;49.720;7.296;2022-10-17T08:25:10;98778.38;;;12.94;100.00
4398;BME280;2213;49.720;7.296;2022-10-17T08:27:41;98768.94;;;12.99;100.00
4398;BME280;2213;49.720;7.296;2022-10-17T08:30:10;98780.53;;;13.05;100.00
4398;BME280;2213;49.720;7.296;2022-10-17T08:32:40;98782.91;;;13.15;100.00
4398;BME280;2213;49.720;7.296;2022-10-17T08:35:09;98775.91;;;13.22;100.00
4398;BME280;2213;49.720;7.296;2022-10-17T08:37:38;98774.78;;;13.31;100.00
4398;BME280;2213;49.720;7.296;2022-10-17T08:40:19;98777.69;;;13.36;100.00
4398;BME280;2213;49.720;7.296;2022-10-17T08:43:27;98778.84;;;13.54;100.00
4398;BME280;2213;49.720;7.296;2022-10-17T08:46:05;98786.81;;;13.61;100.00
4398;BME280;2213;49.720;7.296;2022-10-17T08:48:39;98792.56;;;13.71;100.00
4398;BME280;2213;49.720;7.296;2022-10-17T08:51:18;98792.88;;;13.83;100.00
4398;BME280;2213;49.720;7.296;2022-10-17T08:53:54;98796.81;;;13.93;100.00
4398;BME280;2213;49.720;7.296;2022-10-17T08:56:32;98798.38;;;14.09;100.00
4398;BME280;2213;49.720;7.296;2022-10-17T08:59:20;98809.81;;;14.23;100.00
4398;BME280;2213;49.720;7.296;2022-10-17T09:02:00;98811.09;;;14.33;100.00
4398;BME280;2213;49.720;7.296;2022-10-17T09:04:54;98804.72;;;14.49;100.00
4398;BME280;2213;49.720;7.296;2022-10-17T09:07:40;98805.41;;;14.57;100.00
4398;BME280;2213;49.720;7.296;2022-10-17T09:10:20;98819.78;;;14.61;100.00
4398;BME280;2213;49.720;7.296;2022-10-17T09:13:16;98816.41;;;14.68;100.00
4398;BME280;2213;49.720;7.296;2022-10-17T09:16:09;98827.78;;;14.75;100.00
4398;BME280;2213;49.720;7.296;2022-10-17T09:18:46;98831.84;;;14.77;100.00
4398;BME280;2213;49.720;7.296;2022-10-17T09:21:29;98829.63;;;14.81;100.00
4398;BME280;2213;49.720;7.296;2022-10-17T09:24:08;98838.00;;;14.91;100.00
4398;BME280;2213;49.720;7.296;2022-10-17T09:26:45;98839.22;;;14.95;100.00
4398;BME280;2213;49.720;7.296;2022-10-17T09:29:21;98853.84;;;15.04;100.00
4398;BME280;2213;49.720;7.296;2022-10-17T09:31:59;98854.91;;;15.09;100.00
4398;BME280;2213;49.720;7.296;2022-10-17T09:34:32;98843.59;;;15.22;100.00
4398;BME280;2213;49.720;7.296;2022-10-17T09:37:02;98854.97;;;15.29;100.00
4398;BME280;2213;49.720;7.296;2022-10-17T09:39:34;98858.63;;;15.35;100.00
4398;BME280;2213;49.720;7.296;2022-10-17T09:42:02;98854.44;;;15.40;100.00
4398;BME280;2213;49.720;7.296;2022-10-17T09:44:35;98853.03;;;15.44;100.00
4398;BME280;2213;49.720;7.296;2022-10-17T09:47:21;98857.72;;;15.49;100.00
4398;BME280;2213;49.720;7.296;2022-10-17T09:49:54;98868.69;;;15.52;100.00
4398;BME280;2213;49.720;7.296;2022-10-17T09:52:29;98860.59;;;15.54;100.00
4398;BME280;2213;49.720;7.296;2022-10-17T09:55:04;98855.75;;;15.64;100.00
4398;BME280;2213;49.720;7.296;2022-10-17T09:57:54;98869.94;;;15.70;100.00
4398;BME280;2213;49.720;7.296;2022-10-17T10:00:28;98866.31;;;15.77;100.00
4398;BME280;2213;49.720;7.296;2022-10-17T10:03:17;98865.31;;;15.85;100.00
4398;BME280;2213;49.720;7.296;2022-10-17T10:06:02;98868.19;;;16.03;100.00
4398;BME280;2213;49.720;7.296;2022-10-17T10:08:35;98859.47;;;16.16;100.00
4398;BME280;2213;49.720;7.296;2022-10-17T10:11:07;98863.50;;;16.18;100.00
4398;BME280;2213;49.720;7.296;2022-10-17T10:13:41;98862.91;;;16.29;100.00
4398;BME280;2213;49.720;7.296;2022-10-17T10:16:30;98867.19;;;16.43;100.00
4398;BME280;2213;49.720;7.296;2022-10-17T10:19:01;98868.59;;;16.46;100.00
4398;BME280;2213;49.720;7.296;2022-10-17T10:21:35;98860.47;;;16.54;100.00
4398;BME280;2213;49.720;7.296;2022-10-17T10:24:17;98857.44;;;16.57;100.00
4398;BME280;2213;49.720;7.296;2022-10-17T10:26:48;98855.81;;;16.63;100.00
4398;BME280;2213;49.720;7.296;2022-10-17T10:29:25;98856.59;;;16.70;100.00
4398;BME280;2213;49.720;7.296;2022-10-17T10:32:08;98857.00;;;16.73;100.00
4398;BME280;2213;49.720;7.296;2022-10-17T10:34:45;98861.28;;;16.74;100.00
4398;BME280;2213;49.720;7.296;2022-10-17T10:37:20;98856.63;;;16.76;100.00
4398;BME280;2213;49.720;7.296;2022-10-17T10:39:53;98856.59;;;16.83;100.00
4398;BME280;2213;49.720;7.296;2022-10-17T10:42:27;98857.59;;;16.88;100.00
4398;BME280;2213;49.720;7.296;2022-10-17T10:45:02;98865.91;;;16.98;100.00
4398;BME280;2213;49.720;7.296;2022-10-17T10:47:36;98862.63;;;17.03;100.00
4398;BME280;2213;49.720;7.296;2022-10-17T10:50:25;98854.69;;;17.09;100.00
4398;BME280;2213;49.720;7.296;2022-10-17T10:53:18;98854.03;;;17.21;100.00
4398;BME280;2213;49.720;7.296;2022-10-17T10:55:57;98858.69;;;17.25;100.00
4398;BME280;2213;49.720;7.296;2022-10-17T10:58:40;98864.75;;;17.32;100.00
4398;BME280;2213;49.720;7.296;2022-10-17T11:01:18;98870.63;;;17.41;100.00
4398;BME280;2213;49.720;7.296;2022-10-17T11:04:19;98858.00;;;17.56;100.00
4398;BME280;2213;49.720;7.296;2022-10-17T11:06:52;98848.56;;;17.67;100.00
4398;BME280;2213;49.720;7.296;2022-10-17T11:09:39;98853.78;;;17.80;100.00
4398;BME280;2213;49.720;7.296;2022-10-17T11:12:18;98854.97;;;17.84;100.00
4398;BME280;2213;49.720;7.296;2022-10-17T11:14:56;98836.03;;;17.87;100.00
4398;BME280;2213;49.720;7.296;2022-10-17T11:17:35;98849.22;;;17.93;100.00
4398;BME280;2213;49.720;7.296;2022-10-17T11:20:18;98847.81;;;17.91;100.00
4398;BME280;2213;49.720;7.296;2022-10-17T11:22:55;98857.34;;;17.92;100.00
4398;BME280;2213;49.720;7.296;2022-10-17T11:25:35;98868.13;;;17.97;100.00
4398;BME280;2213;49.720;7.296;2022-10-17T11:28:12;98861.78;;;17.98;100.00
4398;BME280;2213;49.720;7.296;2022-10-17T11:30:49;98865.44;;;18.03;100.00
4398;BME280;2213;49.720;7.296;2022-10-17T11:33:28;98856.47;;;18.04;100.00
4398;BME280;2213;49.720;7.296;2022-10-17T11:36:04;98861.53;;;18.06;100.00
4398;BME280;2213;49.720;7.296;2022-10-17T11:38:42;98855.81;;;18.09;100.00
4398;BME280;2213;49.720;7.296;2022-10-17T11:41:19;98856.41;;;18.11;100.00
4398;BME280;2213;49.720;7.296;2022-10-17T11:43:56;98866.56;;;18.14;100.00
4398;BME280;2213;49.720;7.296;2022-10-17T11:46:28;98872.63;;;18.21;100.00
4398;BME280;2213;49.720;7.296;2022-10-17T11:49:05;98853.81;;;18.29;100.00
4398;BME280;2213;49.720;7.296;2022-10-17T11:51:52;98849.88;;;18.38;100.00
4398;BME280;2213;49.720;7.296;2022-10-17T11:54:34;98847.59;;;18.42;100.00
4398;BME280;2213;49.720;7.296;2022-10-17T11:57:30;98850.63;;;18.45;100.00
4398;BME280;2213;49.720;7.296;2022-10-17T12:00:21;98852.25;;;18.46;100.00
4398;BME280;2213;49.720;7.296;2022-10-17T12:03:06;98849.63;;;18.46;100.00
4398;BME280;2213;49.720;7.296;2022-10-17T12:05:49;98843.88;;;18.49;100.00
4398;BME280;2213;49.720;7.296;2022-10-17T12:08:29;98846.31;;;18.51;100.00
4398;BME280;2213;49.720;7.296;2022-10-17T12:11:07;98842.41;;;18.53;100.00
4398;BME280;2213;49.720;7.296;2022-10-17T12:13:54;98850.75;;;18.57;100.00
4398;BME280;2213;49.720;7.296;2022-10-17T12:16:47;98854.38;;;18.63;100.00
4398;BME280;2213;49.720;7.296;2022-10-17T12:19:26;98847.97;;;18.70;100.00
4398;BME280;2213;49.720;7.296;2022-10-17T12:22:20;98847.91;;;18.77;100.00
4398;BME280;2213;49.720;7.296;2022-10-17T12:24:59;98845.41;;;18.82;100.00
4398;BME280;2213;49.720;7.296;2022-10-17T12:27:39;98843.13;;;18.85;100.00
4398;BME280;2213;49.720;7.296;2022-10-17T12:30:30;98843.88;;;18.92;100.00
4398;BME280;2213;49.720;7.296;2022-10-17T12:33:15;98849.69;;;19.01;100.00
4398;BME280;2213;49.720;7.296;2022-10-17T12:35:50;98846.16;;;19.07;100.00
4398;BME280;2213;49.720;7.296;2022-10-17T12:38:40;98850.81;;;19.12;100.00
4398;BME280;2213;49.720;7.296;2022-10-17T12:41:14;98846.88;;;19.14;100.00
4398;BME280;2213;49.720;7.296;2022-10-17T12:43:50;98840.69;;;19.20;100.00
4398;BME280;2213;49.720;7.296;2022-10-17T12:46:48;98853.28;;;19.25;100.00
4398;BME280;2213;49.720;7.296;2022-10-17T12:49:47;98845.81;;;19.33;100.00
4398;BME280;2213;49.720;7.296;2022-10-17T12:52:55;98849.06;;;19.35;100.00
4398;BME280;2213;49.720;7.296;2022-10-17T12:55:28;98844.53;;;19.42;100.00
4398;BME280;2213;49.720;7.296;2022-10-17T12:58:01;98847.75;;;19.44;100.00
4398;BME280;2213;49.720;7.296;2022-10-17T13:00:41;98841.22;;;19.47;100.00
4398;BME280;2213;49.720;7.296;2022-10-17T13:03:34;98845.81;;;19.51;100.00
4398;BME280;2213;49.720;7.296;2022-10-17T13:06:21;98836.38;;;19.55;100.00
4398;BME280;2213;49.720;7.296;2022-10-17T13:08:58;98845.06;;;19.63;100.00
4398;BME280;2213;49.720;7.296;2022-10-17T13:11:35;98836.44;;;19.67;100.00
4398;BME280;2213;49.720;7.296;2022-10-17T13:14:12;98845.78;;;19.70;100.00
4398;BME280;2213;49.720;7.296;2022-10-17T13:16:57;98848.22;;;19.71;100.00
4398;BME280;2213;49.720;7.296;2022-10-17T13:19:31;98851.25;;;19.75;100.00
4398;BME280;2213;49.720;7.296;2022-10-17T13:22:14;98849.16;;;19.77;100.00
4398;BME280;2213;49.720;7.296;2022-10-17T13:24:44;98851.59;;;19.78;100.00
4398;BME280;2213;49.720;7.296;2022-10-17T13:27:26;98850.53;;;19.79;100.00
4398;BME280;2213;49.720;7.296;2022-10-17T13:29:59;98853.56;;;19.83;100.00
4398;BME280;2213;49.720;7.296;2022-10-17T13:32:38;98851.50;;;19.85;100.00
4398;BME280;2213;49.720;7.296;2022-10-17T13:35:12;98845.94;;;19.86;100.00
4398;BME280;2213;49.720;7.296;2022-10-17T13:37:43;98851.41;;;19.91;100.00
4398;BME280;2213;49.720;7.296;2022-10-17T13:40:22;98848.66;;;19.98;100.00
4398;BME280;2213;49.720;7.296;2022-10-17T13:43:16;98857.31;;;20.05;100.00
4398;BME280;2213;49.720;7.296;2022-10-17T13:45:51;98842.91;;;20.13;100.00
4398;BME280;2213;49.720;7.296;2022-10-17T13:48:23;98849.16;;;20.18;100.00
4398;BME280;2213;49.720;7.296;2022-10-17T13:50:57;98853.53;;;20.24;100.00
4398;BME280;2213;49.720;7.296;2022-10-17T13:53:32;98868.63;;;20.30;100.00